createdAt,value
2023-08-12T00:00:59.194Z,74.88
2023-08-12T00:01:59.156Z,75.58
2023-08-12T00:02:59.210Z,74.98
2023-08-12T00:03:59.186Z,74.68
2023-08-12T00:04:59.123Z,74.68
2023-08-12T00:05:59.114Z,74.74
2023-08-12T00:06:59.102Z,74.57
2023-08-12T00:07:59.106Z,74.77
2023-08-12T00:08:59.079Z,74.48
2023-08-12T00:09:59.080Z,74.27
2023-08-12T00:10:59.066Z,74.48
2023-08-12T00:11:59.069Z,74.57
2023-08-12T00:12:59.053Z,74.57
2023-08-12T00:13:59.024Z,74.48
2023-08-12T00:14:59.025Z,74.57
2023-08-12T00:15:59.145Z,74.48
2023-08-12T00:16:59.014Z,74.27
2023-08-12T00:17:59.046Z,74.57
2023-08-12T00:18:58.999Z,74.57
2023-08-12T00:19:58.966Z,74.27
2023-08-12T00:20:58.954Z,74.18
2023-08-12T00:21:58.953Z,74.24
2023-08-12T00:22:58.951Z,74.07
2023-08-12T00:23:58.922Z,74.07
2023-08-12T00:24:58.913Z,74.48
2023-08-12T00:25:58.911Z,74.37
2023-08-12T00:26:58.918Z,74.18
2023-08-12T00:27:58.877Z,74.27
2023-08-12T00:28:58.868Z,74.27
2023-08-12T00:29:58.851Z,74.18
2023-08-12T00:30:58.879Z,74.37
2023-08-12T00:31:58.834Z,74.48
2023-08-12T00:32:58.831Z,74.48
2023-08-12T00:33:58.808Z,74.48
2023-08-12T00:34:58.817Z,74.27
2023-08-12T00:35:58.803Z,74.48
2023-08-12T00:36:58.790Z,74.71
2023-08-12T00:37:58.776Z,74.77
2023-08-12T00:38:58.760Z,74.98
2023-08-12T00:39:58.759Z,74.31
2023-08-12T00:40:58.757Z,74.77
2023-08-12T00:41:58.724Z,74.51
2023-08-12T00:42:58.710Z,75.01
2023-08-12T00:43:58.698Z,75.65
2023-08-12T00:44:58.728Z,75.55
2023-08-12T00:45:58.675Z,75.75
2023-08-12T00:46:58.777Z,75.82
2023-08-12T00:47:58.680Z,75.71
2023-08-12T00:48:58.678Z,75.92
2023-08-12T00:49:58.666Z,75.82
2023-08-12T00:50:58.642Z,75.71
2023-08-12T00:51:58.614Z,75.71
2023-08-12T00:52:58.604Z,75.82
2023-08-12T00:53:58.605Z,75.51
2023-08-12T00:54:58.614Z,75.42
2023-08-12T00:55:58.570Z,75.71
2023-08-12T00:56:58.559Z,75.62
2023-08-12T00:57:58.550Z,75.62
2023-08-12T00:58:58.577Z,75.27
2023-08-12T00:59:58.527Z,75.27
2023-08-12T01:00:58.572Z,75.48
2023-08-12T01:01:58.511Z,75.51
2023-08-12T01:02:58.667Z,75.27
2023-08-12T01:03:58.566Z,74.88
2023-08-12T01:04:58.472Z,74.51
2023-08-12T01:05:58.464Z,74.71
2023-08-12T01:06:58.500Z,74.61
2023-08-12T01:07:58.462Z,74.81
2023-08-12T01:08:58.438Z,74.71
2023-08-12T01:09:58.419Z,74.71
2023-08-12T01:10:58.415Z,75.31
2023-08-12T01:11:58.404Z,75.01
2023-08-12T01:12:58.406Z,75.01
2023-08-12T01:13:58.378Z,75.31
2023-08-12T01:14:58.386Z,75.21
2023-08-12T01:15:58.373Z,75.51
2023-08-12T01:16:58.408Z,75.42
2023-08-12T01:17:58.381Z,75.55
2023-08-12T01:18:58.390Z,76.02
2023-08-12T01:19:58.318Z,75.65
2023-08-12T01:20:58.309Z,75.45
2023-08-12T01:21:58.344Z,75.75
2023-08-12T01:22:58.307Z,76.05
2023-08-12T01:23:58.270Z,75.85
2023-08-12T01:24:58.269Z,76.15
2023-08-12T01:25:58.248Z,75.25
2023-08-12T01:26:58.263Z,75.55
2023-08-12T01:27:58.228Z,75.25
2023-08-12T01:28:58.220Z,75.35
2023-08-12T01:29:58.207Z,75.35
2023-08-12T01:30:58.261Z,75.55
2023-08-12T01:31:58.198Z,75.55
2023-08-12T01:32:58.224Z,75.55
2023-08-12T01:33:58.162Z,75.25
2023-08-12T01:34:58.157Z,76.25
2023-08-12T01:35:58.183Z,75.55
2023-08-12T01:36:58.133Z,75.65
2023-08-12T01:37:58.120Z,75.55
2023-08-12T01:38:58.133Z,75.35
2023-08-12T01:39:58.094Z,75.35
2023-08-12T01:40:58.111Z,75.25
2023-08-12T01:41:58.075Z,75.45
2023-08-12T01:42:58.066Z,75.55
2023-08-12T01:43:58.050Z,76.15
2023-08-12T01:44:58.061Z,75.75
2023-08-12T01:45:58.055Z,75.25
2023-08-12T01:46:58.026Z,75.65
2023-08-12T01:47:58.033Z,75.55
2023-08-12T01:48:58.004Z,75.45
2023-08-12T01:49:58.005Z,75.35
2023-08-12T01:50:57.976Z,75.85
2023-08-12T01:51:57.972Z,75.59
2023-08-12T01:52:57.959Z,75.79
2023-08-12T01:53:57.952Z,75.75
2023-08-12T01:54:57.967Z,75.29
2023-08-12T01:55:57.921Z,76.29
2023-08-12T01:56:57.916Z,75.79
2023-08-12T01:57:57.899Z,75.79
2023-08-12T01:58:57.920Z,76.09
2023-08-12T01:59:57.898Z,76.19
2023-08-12T02:00:57.870Z,76.49
2023-08-12T02:01:57.995Z,76.39
2023-08-12T02:02:57.891Z,76.93
2023-08-12T02:03:57.959Z,76.79
2023-08-12T02:04:57.824Z,76.73
2023-08-12T02:05:57.832Z,76.79
2023-08-12T02:06:57.807Z,76.32
2023-08-12T02:07:57.818Z,76.89
2023-08-12T02:08:57.810Z,76.83
2023-08-12T02:09:57.783Z,76.83
2023-08-12T02:10:57.780Z,77.03
2023-08-12T02:11:57.751Z,77.13
2023-08-12T02:12:57.757Z,77.00
2023-08-12T02:13:57.728Z,76.93
2023-08-12T02:14:57.737Z,76.89
2023-08-12T02:15:57.710Z,77.00
2023-08-12T02:16:57.707Z,77.00
2023-08-12T02:17:57.749Z,76.73
2023-08-12T02:18:57.678Z,76.93
2023-08-12T02:19:57.660Z,76.83
2023-08-12T02:20:57.659Z,76.93
2023-08-12T02:21:57.659Z,77.43
2023-08-12T02:22:57.678Z,77.43
2023-08-12T02:23:57.620Z,77.43
2023-08-12T02:24:57.616Z,77.43
2023-08-12T02:25:57.601Z,77.39
2023-08-12T02:26:57.618Z,77.33
2023-08-12T02:27:57.608Z,76.73
2023-08-12T02:28:57.569Z,76.89
2023-08-12T02:29:57.556Z,76.59
2023-08-12T02:30:57.556Z,77.09
2023-08-12T02:31:57.641Z,76.79
2023-08-12T02:32:57.562Z,76.89
2023-08-12T02:33:57.515Z,76.89
2023-08-12T02:34:57.507Z,76.49
2023-08-12T02:35:57.489Z,76.19
2023-08-12T02:36:57.491Z,76.49
2023-08-12T02:37:57.473Z,76.19
2023-08-12T02:38:57.488Z,76.69
2023-08-12T02:39:57.452Z,75.89
2023-08-12T02:40:57.474Z,76.39
2023-08-12T02:41:57.429Z,76.59
2023-08-12T02:42:57.435Z,76.49
2023-08-12T02:43:57.427Z,76.29
2023-08-12T02:44:57.396Z,76.89
2023-08-12T02:45:57.417Z,76.79
2023-08-12T02:46:57.371Z,76.79
2023-08-12T02:47:57.413Z,76.69
2023-08-12T02:48:57.360Z,76.89
2023-08-12T02:49:57.354Z,76.79
2023-08-12T02:50:57.348Z,76.89
2023-08-12T02:51:57.319Z,76.19
2023-08-12T02:52:57.311Z,76.49
2023-08-12T02:53:57.293Z,76.19
2023-08-12T02:54:57.314Z,76.69
2023-08-12T02:55:57.280Z,76.79
2023-08-12T02:56:57.280Z,76.39
2023-08-12T02:57:57.290Z,77.00
2023-08-12T02:58:57.282Z,76.29
2023-08-12T02:59:57.247Z,76.39
2023-08-12T03:00:57.258Z,76.09
2023-08-12T03:01:57.210Z,76.69
2023-08-12T03:02:57.258Z,76.39
2023-08-12T03:03:57.192Z,76.79
2023-08-12T03:04:57.204Z,76.89
2023-08-12T03:05:57.178Z,77.00
2023-08-12T03:06:57.173Z,76.83
2023-08-12T03:07:57.144Z,76.73
2023-08-12T03:08:57.165Z,77.00
2023-08-12T03:09:57.141Z,77.43
2023-08-12T03:10:57.116Z,77.33
2023-08-12T03:11:57.115Z,77.23
2023-08-12T03:12:57.093Z,77.13
2023-08-12T03:13:57.100Z,77.23
2023-08-12T03:14:57.093Z,77.43
2023-08-12T03:15:57.107Z,77.23
2023-08-12T03:16:57.047Z,77.33
2023-08-12T03:17:57.059Z,77.53
2023-08-12T03:18:57.044Z,77.53
2023-08-12T03:19:57.048Z,77.43
2023-08-12T03:20:57.015Z,77.43
2023-08-12T03:21:56.992Z,77.43
2023-08-12T03:22:57.036Z,77.33
2023-08-12T03:23:57.049Z,77.23
2023-08-12T03:24:56.962Z,77.43
2023-08-12T03:25:56.957Z,77.43
2023-08-12T03:26:56.944Z,77.43
2023-08-12T03:27:56.946Z,77.53
2023-08-12T03:28:56.917Z,77.33
2023-08-12T03:29:56.904Z,77.43
2023-08-12T03:30:56.939Z,77.13
2023-08-12T03:31:56.933Z,77.03
2023-08-12T03:32:56.926Z,77.03
2023-08-12T03:33:56.866Z,77.17
2023-08-12T03:34:56.867Z,77.07
2023-08-12T03:35:56.843Z,77.13
2023-08-12T03:36:56.846Z,77.17
2023-08-12T03:37:56.827Z,77.13
2023-08-12T03:38:56.819Z,77.13
2023-08-12T03:39:56.800Z,77.13
2023-08-12T03:40:56.792Z,77.37
2023-08-12T03:41:56.801Z,77.27
2023-08-12T03:42:56.773Z,76.93
2023-08-12T03:43:56.753Z,77.07
2023-08-12T03:44:56.753Z,77.23
2023-08-12T03:45:56.747Z,77.33
2023-08-12T03:46:56.796Z,77.57
2023-08-12T03:47:56.732Z,77.57
2023-08-12T03:48:56.760Z,77.47
2023-08-12T03:49:56.687Z,77.43
2023-08-12T03:50:56.696Z,77.47
2023-08-12T03:51:56.677Z,77.17
2023-08-12T03:52:56.657Z,77.33
2023-08-12T03:53:56.653Z,77.43
2023-08-12T03:54:56.636Z,76.73
2023-08-12T03:55:56.638Z,77.07
2023-08-12T03:56:56.622Z,77.57
2023-08-12T03:57:56.609Z,77.37
2023-08-12T03:58:56.596Z,77.33
2023-08-12T03:59:56.603Z,77.47
2023-08-12T04:00:56.626Z,77.57
2023-08-12T04:01:56.572Z,77.27
2023-08-12T04:02:56.988Z,77.33
2023-08-12T04:03:56.575Z,77.27
2023-08-12T04:04:56.543Z,77.57
2023-08-12T04:05:56.529Z,77.57
2023-08-12T04:06:56.516Z,77.47
2023-08-12T04:07:56.495Z,77.43
2023-08-12T04:08:56.488Z,77.63
2023-08-12T04:09:56.492Z,77.27
2023-08-12T04:10:56.459Z,77.17
2023-08-12T04:11:56.459Z,77.13
2023-08-12T04:12:56.443Z,76.93
2023-08-12T04:13:56.454Z,76.97
2023-08-12T04:14:56.458Z,76.97
2023-08-12T04:15:56.412Z,77.17
2023-08-12T04:16:56.440Z,76.76
2023-08-12T04:17:56.383Z,76.97
2023-08-12T04:18:56.429Z,77.17
2023-08-12T04:19:56.366Z,77.27
2023-08-12T04:20:56.357Z,76.87
2023-08-12T04:21:56.341Z,77.47
2023-08-12T04:22:56.346Z,77.47
2023-08-12T04:23:56.393Z,77.37
2023-08-12T04:24:56.320Z,77.17
2023-08-12T04:25:56.313Z,77.23
2023-08-12T04:26:56.288Z,77.23
2023-08-12T04:27:56.302Z,76.93
2023-08-12T04:28:56.290Z,76.93
2023-08-12T04:29:56.256Z,76.73
2023-08-12T04:30:56.290Z,76.93
2023-08-12T04:31:56.240Z,75.92
2023-08-12T04:32:56.256Z,75.79
2023-08-12T04:33:56.257Z,76.19
2023-08-12T04:34:56.224Z,75.89
2023-08-12T04:35:56.193Z,75.18
2023-08-12T04:36:56.180Z,75.38
2023-08-12T04:37:56.207Z,75.49
2023-08-12T04:38:56.160Z,75.25
2023-08-12T04:39:56.151Z,75.75
2023-08-12T04:40:56.208Z,75.85
2023-08-12T04:41:56.208Z,75.85
2023-08-12T04:42:56.166Z,75.85
2023-08-12T04:43:56.118Z,75.85
2023-08-12T04:44:56.105Z,75.85
2023-08-12T04:45:56.142Z,75.62
2023-08-12T04:46:56.093Z,75.51
2023-08-12T04:47:56.166Z,75.31
2023-08-12T04:48:56.060Z,74.57
2023-08-12T04:49:56.049Z,73.47
2023-08-12T04:50:56.060Z,73.67
2023-08-12T04:51:56.087Z,73.07
2023-08-12T04:52:56.042Z,73.17
2023-08-12T04:53:56.000Z,73.07
2023-08-12T04:54:56.000Z,73.27
2023-08-12T04:55:56.008Z,73.47
2023-08-12T04:56:55.967Z,73.47
2023-08-12T04:57:55.958Z,73.33
2023-08-12T04:58:55.952Z,73.24
2023-08-12T04:59:55.945Z,73.33
2023-08-12T05:00:55.961Z,72.24
2023-08-12T05:02:03.978Z,72.03
2023-08-12T05:02:56.958Z,72.33
2023-08-12T05:03:55.913Z,71.43
2023-08-12T05:04:55.933Z,71.50
2023-08-12T05:05:55.896Z,71.23
2023-08-12T05:06:55.881Z,71.59
2023-08-12T05:07:55.893Z,71.20
2023-08-12T05:08:55.840Z,70.79
2023-08-12T05:09:55.868Z,71.16
2023-08-12T05:10:55.841Z,70.66
2023-08-12T05:11:55.810Z,70.26
2023-08-12T05:12:55.799Z,69.96
2023-08-12T05:13:55.792Z,70.36
2023-08-12T05:14:55.811Z,70.26
2023-08-12T05:15:55.806Z,69.42
2023-08-12T05:16:55.758Z,69.62
2023-08-12T05:17:55.789Z,69.32
2023-08-12T05:18:55.756Z,69.62
2023-08-12T05:19:55.757Z,68.89
2023-08-12T05:20:55.718Z,68.99
2023-08-12T05:21:55.710Z,69.06
2023-08-12T05:22:55.710Z,68.55
2023-08-12T05:23:55.709Z,68.26
2023-08-12T05:24:55.717Z,67.55
2023-08-12T05:25:55.834Z,67.02
2023-08-12T05:26:55.652Z,67.05
2023-08-12T05:27:55.662Z,67.93
2023-08-12T05:28:55.646Z,66.93
2023-08-12T05:29:56.325Z,66.63
2023-08-12T05:30:55.619Z,66.93
2023-08-12T05:31:55.690Z,67.02
2023-08-12T05:32:55.728Z,66.59
2023-08-12T05:33:55.752Z,67.19
2023-08-12T05:34:55.574Z,66.99
2023-08-12T05:35:55.571Z,66.86
2023-08-12T05:36:55.569Z,66.76
2023-08-12T05:37:55.551Z,66.66
2023-08-12T05:38:55.551Z,66.33
2023-08-12T05:39:55.517Z,66.03
2023-08-12T05:40:55.509Z,65.73
2023-08-12T05:41:55.494Z,65.43
2023-08-12T05:42:55.498Z,65.53
2023-08-12T05:43:55.493Z,65.53
2023-08-12T05:44:55.456Z,65.13
2023-08-12T05:45:55.491Z,65.63
2023-08-12T05:46:55.451Z,65.13
2023-08-12T05:47:55.481Z,65.13
2023-08-12T05:48:55.423Z,65.13
2023-08-12T05:49:55.408Z,65.36
2023-08-12T05:50:55.400Z,65.36
2023-08-12T05:51:55.434Z,66.86
2023-08-12T05:52:55.412Z,66.66
2023-08-12T05:53:55.363Z,65.86
2023-08-12T05:54:55.400Z,66.09
2023-08-12T05:55:55.356Z,66.69
2023-08-12T05:56:55.354Z,66.79
2023-08-12T05:57:55.318Z,66.89
2023-08-12T05:58:55.303Z,66.86
2023-08-12T05:59:55.292Z,66.56
2023-08-12T06:00:55.318Z,66.96
2023-08-12T06:01:55.312Z,67.06
2023-08-12T06:02:55.344Z,66.96
2023-08-12T06:03:55.264Z,66.83
2023-08-12T06:04:55.237Z,65.83
2023-08-12T06:05:55.285Z,66.13
2023-08-12T06:06:55.216Z,66.63
2023-08-12T06:07:55.213Z,66.46
2023-08-12T06:08:55.203Z,66.56
2023-08-12T06:09:55.187Z,66.93
2023-08-12T06:10:55.204Z,67.03
2023-08-12T06:11:55.161Z,66.63
2023-08-12T06:12:55.152Z,66.83
2023-08-12T06:13:55.178Z,66.53
2023-08-12T06:14:55.151Z,65.73
2023-08-12T06:15:55.175Z,66.39
2023-08-12T06:16:58.183Z,66.53
2023-08-12T06:17:55.115Z,66.60
2023-08-12T06:18:55.085Z,66.50
2023-08-12T06:19:55.096Z,66.89
2023-08-12T06:20:55.068Z,67.00
2023-08-12T06:21:55.055Z,66.06
2023-08-12T06:22:55.059Z,65.70
2023-08-12T06:23:55.035Z,66.39
2023-08-12T06:24:55.029Z,66.80
2023-08-12T06:25:55.011Z,66.39
2023-08-12T06:26:55.067Z,65.97
2023-08-12T06:27:54.987Z,65.77
2023-08-12T06:28:54.997Z,65.80
2023-08-12T06:29:54.996Z,65.67
2023-08-12T06:30:54.952Z,65.77
2023-08-12T06:31:54.943Z,65.67
2023-08-12T06:32:54.953Z,65.87
2023-08-12T06:33:55.021Z,65.47
2023-08-12T06:34:54.919Z,65.23
2023-08-12T06:35:54.902Z,65.53
2023-08-12T06:36:54.890Z,65.14
2023-08-12T06:37:54.881Z,64.84
2023-08-12T06:38:54.891Z,65.31
2023-08-12T06:39:54.864Z,65.20
2023-08-12T06:40:54.851Z,65.11
2023-08-12T06:41:54.883Z,64.61
2023-08-12T06:42:54.854Z,64.81
2023-08-12T06:43:54.848Z,65.31
2023-08-12T06:44:54.806Z,65.31
2023-08-12T06:45:54.814Z,64.81
2023-08-12T06:46:54.786Z,64.61
2023-08-12T06:47:54.795Z,64.51
2023-08-12T06:48:54.760Z,64.41
2023-08-12T06:49:54.748Z,63.71
2023-08-12T06:50:54.745Z,64.41
2023-08-12T06:51:54.740Z,64.41
2023-08-12T06:52:54.748Z,64.84
2023-08-12T06:53:54.716Z,64.74
2023-08-12T06:54:54.699Z,65.53
2023-08-12T06:55:54.684Z,64.67
2023-08-12T06:56:54.688Z,65.26
2023-08-12T06:57:54.691Z,65.44
2023-08-12T06:58:54.697Z,65.04
2023-08-12T06:59:54.639Z,65.20
2023-08-12T07:00:54.724Z,64.90
2023-08-12T07:01:54.633Z,64.78
2023-08-12T07:02:54.645Z,65.08
2023-08-12T07:03:54.651Z,64.97
2023-08-12T07:04:54.599Z,63.95
2023-08-12T07:05:54.618Z,63.75
2023-08-12T07:06:54.604Z,63.65
2023-08-12T07:07:54.551Z,63.75
2023-08-12T07:08:54.543Z,63.65
2023-08-12T07:09:54.533Z,63.75
2023-08-12T07:10:54.543Z,63.58
2023-08-12T07:11:54.517Z,64.58
2023-08-12T07:12:54.499Z,64.58
2023-08-12T07:13:54.489Z,64.48
2023-08-12T07:14:54.540Z,64.58
2023-08-12T07:15:54.508Z,64.45
2023-08-12T07:16:54.464Z,63.82
2023-08-12T07:17:54.463Z,63.19
2023-08-12T07:18:54.436Z,62.46
2023-08-12T07:19:54.441Z,62.21
2023-08-12T07:20:54.452Z,61.98
2023-08-12T07:21:54.548Z,59.47
2023-08-12T07:22:54.393Z,59.04
2023-08-12T07:24:03.120Z,59.31
2023-08-12T07:24:55.415Z,59.53
2023-08-12T07:25:54.369Z,60.10
2023-08-12T07:26:54.343Z,60.43
2023-08-12T07:27:54.340Z,59.70
2023-08-12T07:28:54.322Z,58.32
2023-08-12T07:29:54.334Z,58.51
2023-08-12T07:30:54.360Z,58.42
2023-08-12T07:31:54.462Z,57.62
2023-08-12T07:32:54.297Z,58.64
2023-08-12T07:33:54.289Z,59.17
2023-08-12T07:34:54.283Z,59.34
2023-08-12T07:35:54.251Z,59.86
2023-08-12T07:36:54.239Z,60.06
2023-08-12T07:37:54.230Z,61.15
2023-08-12T07:38:54.236Z,61.38
2023-08-12T07:39:54.206Z,62.18
2023-08-12T07:40:54.193Z,61.88
2023-08-12T07:41:54.189Z,62.67
2023-08-12T07:42:54.205Z,60.98
2023-08-12T07:43:54.186Z,61.11
2023-08-12T07:44:54.199Z,62.13
2023-08-12T07:46:07.747Z,62.63
2023-08-12T07:46:55.160Z,61.96
2023-08-12T07:47:54.246Z,62.19
2023-08-12T07:48:54.109Z,63.09
2023-08-12T07:49:54.098Z,63.26
2023-08-12T07:50:54.088Z,63.66
2023-08-12T07:51:54.082Z,63.76
2023-08-12T07:52:54.086Z,63.46
2023-08-12T07:53:54.057Z,63.33
2023-08-12T07:54:54.043Z,63.23
2023-08-12T07:55:54.033Z,63.23
2023-08-12T07:56:54.057Z,63.53
2023-08-12T07:57:54.036Z,63.92
2023-08-12T07:58:54.009Z,62.73
2023-08-12T07:59:53.993Z,62.60
2023-08-12T08:00:53.984Z,62.63
2023-08-12T08:01:54.013Z,63.30
2023-08-12T08:02:54.032Z,63.40
2023-08-12T08:03:53.951Z,63.10
2023-08-12T08:04:53.974Z,63.07
2023-08-12T08:05:53.930Z,62.18
2023-08-12T08:06:53.942Z,61.35
2023-08-12T08:07:53.906Z,61.42
2023-08-12T08:08:53.895Z,61.91
2023-08-12T08:09:53.883Z,61.02
2023-08-12T08:10:53.894Z,59.53
2023-08-12T08:11:54.920Z,59.93
2023-08-12T08:12:53.848Z,59.34
2023-08-12T08:13:53.846Z,60.40
2023-08-12T08:14:53.832Z,59.51
2023-08-12T08:15:53.918Z,59.51
2023-08-12T08:16:53.903Z,59.91
2023-08-12T08:17:55.230Z,61.02
2023-08-12T08:18:53.806Z,61.42
2023-08-12T08:19:53.785Z,61.55
2023-08-12T08:20:53.793Z,62.64
2023-08-12T08:21:53.760Z,62.64
2023-08-12T08:22:53.740Z,62.34
2023-08-12T08:23:53.728Z,62.24
2023-08-12T08:24:53.735Z,62.05
2023-08-12T08:25:53.724Z,62.27
2023-08-12T08:26:53.700Z,62.57
2023-08-12T08:27:53.684Z,62.67
2023-08-12T08:28:53.676Z,63.17
2023-08-12T08:29:53.690Z,63.10
2023-08-12T08:30:53.728Z,63.49
2023-08-12T08:31:53.647Z,63.10
2023-08-12T08:32:53.689Z,63.20
2023-08-12T08:33:53.620Z,63.20
2023-08-12T08:34:53.647Z,63.30
2023-08-12T08:35:53.639Z,62.60
2023-08-12T08:36:53.592Z,62.90
2023-08-12T08:37:53.597Z,62.80
2023-08-12T08:38:53.592Z,63.13
2023-08-12T08:39:53.592Z,63.23
2023-08-12T08:40:53.543Z,63.43
2023-08-12T08:41:53.531Z,63.53
2023-08-12T08:42:53.524Z,64.22
2023-08-12T08:43:53.526Z,64.32
2023-08-12T08:44:53.501Z,64.72
2023-08-12T08:45:53.513Z,64.42
2023-08-12T08:46:53.488Z,64.12
2023-08-12T08:47:53.638Z,64.32
2023-08-12T08:48:53.490Z,64.75
2023-08-12T08:49:53.448Z,64.85
2023-08-12T08:50:53.458Z,65.05
2023-08-12T08:51:53.428Z,64.58
2023-08-12T08:52:53.467Z,65.05
2023-08-12T08:53:53.786Z,65.25
2023-08-12T08:54:53.598Z,65.88
2023-08-12T08:56:01.357Z,66.54
2023-08-12T08:57:00.431Z,66.67
2023-08-12T08:58:02.209Z,66.57
2023-08-12T08:58:54.354Z,67.63
2023-08-12T09:00:53.340Z,68.43
2023-08-12T09:01:53.403Z,68.63
2023-08-12T09:02:53.377Z,66.35
2023-08-12T09:03:53.300Z,66.54
2023-08-12T09:04:53.315Z,66.54
2023-08-12T09:05:53.282Z,67.63
2023-08-12T09:06:53.300Z,67.33
2023-08-12T09:07:53.268Z,67.74
2023-08-12T09:08:53.259Z,67.83
2023-08-12T09:09:53.232Z,68.23
2023-08-12T09:10:53.224Z,66.64
2023-08-12T09:11:53.232Z,66.84
2023-08-12T09:12:53.248Z,66.74
2023-08-12T09:13:53.189Z,66.44
2023-08-12T09:14:53.187Z,66.14
2023-08-12T09:15:53.225Z,66.64
2023-08-12T09:16:53.879Z,67.24
2023-08-12T09:17:53.167Z,66.74
2023-08-12T09:18:53.146Z,66.54
2023-08-12T09:19:53.134Z,66.81
2023-08-12T09:20:53.129Z,66.61
2023-08-12T09:21:53.121Z,66.31
2023-08-12T09:22:53.131Z,66.31
2023-08-12T09:23:53.090Z,66.31
2023-08-12T09:24:53.081Z,64.66
2023-08-12T09:25:53.074Z,64.36
2023-08-12T09:26:53.052Z,64.46
2023-08-12T09:27:53.044Z,64.83
2023-08-12T09:28:55.272Z,64.62
2023-08-12T09:29:53.038Z,63.80
2023-08-12T09:30:53.028Z,63.08
2023-08-12T09:31:53.068Z,62.68
2023-08-12T09:32:53.018Z,62.98
2023-08-12T09:33:52.977Z,62.98
2023-08-12T09:34:52.986Z,63.08
2023-08-12T09:35:52.967Z,63.37
2023-08-12T09:36:52.945Z,63.48
2023-08-12T09:37:52.936Z,63.48
2023-08-12T09:38:52.950Z,62.88
2023-08-12T09:39:52.938Z,62.98
2023-08-12T09:40:52.909Z,63.28
2023-08-12T09:41:52.890Z,63.28
2023-08-12T09:42:52.881Z,63.70
2023-08-12T09:43:52.898Z,63.21
2023-08-12T09:44:52.885Z,62.71
2023-08-12T09:45:52.900Z,63.10
2023-08-12T09:46:52.843Z,63.43
2023-08-12T09:47:52.838Z,63.60
2023-08-12T09:48:52.842Z,63.64
2023-08-12T09:49:52.815Z,64.59
2023-08-12T09:50:52.802Z,64.73
2023-08-12T09:51:52.807Z,64.53
2023-08-12T09:52:52.785Z,64.62
2023-08-12T09:53:52.793Z,65.09
2023-08-12T09:54:52.784Z,64.62
2023-08-12T09:55:52.743Z,64.99
2023-08-12T09:56:52.733Z,63.48
2023-08-12T09:57:52.733Z,63.37
2023-08-12T09:58:52.730Z,63.05
2023-08-12T09:59:52.702Z,62.45
2023-08-12T10:00:52.708Z,62.75
2023-08-12T10:01:52.713Z,62.32
2023-08-12T10:02:52.766Z,62.52
2023-08-12T10:03:52.869Z,62.32
2023-08-12T10:04:52.653Z,62.42
2023-08-12T10:05:52.642Z,62.42
2023-08-12T10:06:52.624Z,62.32
2023-08-12T10:07:52.630Z,62.23
2023-08-12T10:08:52.611Z,61.83
2023-08-12T10:09:52.659Z,62.32
2023-08-12T10:11:03.122Z,61.83
2023-08-12T10:11:53.596Z,62.02
2023-08-12T10:12:52.572Z,62.32
2023-08-12T10:13:52.549Z,61.93
2023-08-12T10:14:52.537Z,62.95
2023-08-12T10:15:52.582Z,63.74
2023-08-12T10:16:52.531Z,62.55
2023-08-12T10:17:52.555Z,62.82
2023-08-12T10:18:52.494Z,63.15
2023-08-12T10:19:52.485Z,63.15
2023-08-12T10:20:52.478Z,63.64
2023-08-12T10:21:52.474Z,63.57
2023-08-12T10:22:52.447Z,63.57
2023-08-12T10:23:52.445Z,64.47
2023-08-12T10:24:52.456Z,64.07
2023-08-12T10:25:52.430Z,64.17
2023-08-12T10:26:52.453Z,64.17
2023-08-12T10:27:52.435Z,64.37
2023-08-12T10:28:53.091Z,64.63
2023-08-12T10:29:52.376Z,64.47
2023-08-12T10:30:52.379Z,64.96
2023-08-12T10:31:52.353Z,65.06
2023-08-12T10:32:52.372Z,64.67
2023-08-12T10:33:52.333Z,64.56
2023-08-12T10:34:52.339Z,65.66
2023-08-12T10:35:52.326Z,64.47
2023-08-12T10:37:01.353Z,64.67
2023-08-12T10:37:53.290Z,64.37
2023-08-12T10:38:52.281Z,64.76
2023-08-12T10:39:52.289Z,64.86
2023-08-12T10:40:52.262Z,65.26
2023-08-12T10:41:52.246Z,64.76
2023-08-12T10:42:52.275Z,64.76
2023-08-12T10:43:52.234Z,64.34
2023-08-12T10:44:52.239Z,64.43
2023-08-12T10:45:52.202Z,64.83
2023-08-12T10:46:52.277Z,64.93
2023-08-12T10:47:52.231Z,64.63
2023-08-12T10:48:52.184Z,65.03
2023-08-12T10:49:52.174Z,64.93
2023-08-12T10:50:52.159Z,65.33
2023-08-12T10:51:52.141Z,64.34
2023-08-12T10:52:52.129Z,65.00
2023-08-12T10:53:52.128Z,65.20
2023-08-12T10:54:52.108Z,64.60
2023-08-12T10:55:52.104Z,65.39
2023-08-12T10:56:52.086Z,65.89
2023-08-12T10:57:55.095Z,66.09
2023-08-12T10:58:52.116Z,66.09
2023-08-12T10:59:52.052Z,65.89
2023-08-12T11:00:52.077Z,65.09
2023-08-12T11:01:52.029Z,64.97
2023-08-12T11:02:52.056Z,64.97
2023-08-12T11:03:52.067Z,64.57
2023-08-12T11:04:52.000Z,65.17
2023-08-12T11:05:51.994Z,64.37
2023-08-12T11:06:51.979Z,64.17
2023-08-12T11:07:52.027Z,63.78
2023-08-12T11:08:51.958Z,63.45
2023-08-12T11:09:51.946Z,64.24
2023-08-12T11:10:51.944Z,64.37
2023-08-12T11:11:51.928Z,64.67
2023-08-12T11:12:51.935Z,64.28
2023-08-12T11:13:51.909Z,63.48
2023-08-12T11:14:51.912Z,63.98
2023-08-12T11:15:51.889Z,63.78
2023-08-12T11:16:51.920Z,64.04
2023-08-12T11:17:51.933Z,63.78
2023-08-12T11:18:51.855Z,63.85
2023-08-12T11:19:51.838Z,63.35
2023-08-12T11:20:51.831Z,62.96
2023-08-12T11:21:51.854Z,62.36
2023-08-12T11:22:51.814Z,62.36
2023-08-12T11:23:51.800Z,62.76
2023-08-12T11:24:51.790Z,62.85
2023-08-12T11:25:51.779Z,63.06
2023-08-12T11:26:51.787Z,62.76
2023-08-12T11:27:51.756Z,63.09
2023-08-12T11:28:51.749Z,63.25
2023-08-12T11:29:51.738Z,62.85
2023-08-12T11:30:51.762Z,62.69
2023-08-12T11:31:51.726Z,62.88
2023-08-12T11:32:51.752Z,62.59
2023-08-12T11:33:51.694Z,62.88
2023-08-12T11:34:51.735Z,62.49
2023-08-12T11:35:51.685Z,62.79
2023-08-12T11:36:51.661Z,62.79
2023-08-12T11:37:51.658Z,62.39
2023-08-12T11:38:51.651Z,62.52
2023-08-12T11:39:51.653Z,63.02
2023-08-12T11:40:51.653Z,63.02
2023-08-12T11:41:51.633Z,62.92
2023-08-12T11:42:51.599Z,63.21
2023-08-12T11:43:51.590Z,63.54
2023-08-12T11:44:51.604Z,64.14
2023-08-12T11:45:51.623Z,64.34
2023-08-12T11:46:51.568Z,64.34
2023-08-12T11:47:51.552Z,64.73
2023-08-12T11:48:52.172Z,65.53
2023-08-12T11:49:51.534Z,65.03
2023-08-12T11:50:51.510Z,65.03
2023-08-12T11:51:51.495Z,64.73
2023-08-12T11:52:51.510Z,64.63
2023-08-12T11:53:51.495Z,64.93
2023-08-12T11:54:51.479Z,65.33
2023-08-12T11:55:51.457Z,65.33
2023-08-12T11:56:51.446Z,64.43
2023-08-12T11:57:51.436Z,64.53
2023-08-12T11:58:53.828Z,63.84
2023-08-12T11:59:51.409Z,64.23
2023-08-12T12:00:51.402Z,64.14
2023-08-12T12:01:51.423Z,64.93
2023-08-12T12:02:51.595Z,64.63
2023-08-12T12:03:51.445Z,65.03
2023-08-12T12:04:51.386Z,64.93
2023-08-12T12:05:51.350Z,64.93
2023-08-12T12:06:51.369Z,65.33
2023-08-12T12:07:51.344Z,65.03
2023-08-12T12:08:51.341Z,65.13
2023-08-12T12:09:51.304Z,64.93
2023-08-12T12:10:51.297Z,65.13
2023-08-12T12:11:51.280Z,65.33
2023-08-12T12:12:51.294Z,66.12
2023-08-12T12:13:51.264Z,66.02
2023-08-12T12:14:51.258Z,65.72
2023-08-12T12:15:51.241Z,65.95
2023-08-12T12:16:51.326Z,65.95
2023-08-12T12:17:51.277Z,66.65
2023-08-12T12:18:51.230Z,66.25
2023-08-12T12:19:51.197Z,66.55
2023-08-12T12:20:51.191Z,66.35
2023-08-12T12:21:51.200Z,66.35
2023-08-12T12:22:51.183Z,67.05
2023-08-12T12:23:51.171Z,67.38
2023-08-12T12:24:51.150Z,67.38
2023-08-12T12:25:51.135Z,67.38
2023-08-12T12:26:51.166Z,67.18
2023-08-12T12:27:51.111Z,67.27
2023-08-12T12:28:51.108Z,67.38
2023-08-12T12:29:51.097Z,67.47
2023-08-12T12:30:51.154Z,66.38
2023-08-12T12:31:51.087Z,66.28
2023-08-12T12:32:51.080Z,66.38
2023-08-12T12:33:51.047Z,65.78
2023-08-12T12:34:51.088Z,65.89
2023-08-12T12:35:57.814Z,66.61
2023-08-12T12:36:52.022Z,66.58
2023-08-12T12:37:51.004Z,66.41
2023-08-12T12:38:51.002Z,66.51
2023-08-12T12:39:50.984Z,67.41
2023-08-12T12:40:50.996Z,66.48
2023-08-12T12:41:50.971Z,66.38
2023-08-12T12:42:50.959Z,66.68
2023-08-12T12:43:50.938Z,66.22
2023-08-12T12:44:50.931Z,66.22
2023-08-12T12:45:50.988Z,67.27
2023-08-12T12:46:50.909Z,67.80
2023-08-12T12:47:50.963Z,67.50
2023-08-12T12:48:50.888Z,66.28
2023-08-12T12:49:50.896Z,66.38
2023-08-12T12:50:50.906Z,67.57
2023-08-12T12:51:50.853Z,67.47
2023-08-12T12:52:50.846Z,67.34
2023-08-12T12:53:50.834Z,67.74